Time;durP1;ratioP1;P1;durP2;ratioP2;P2;SDS_P1;SDS_P2;PMS_P1;PMS_P2;Temp;Humidity;BMP_temperature;BMP_pressure;BME280_temperature;BME280_humidity;BME280_pressure;Samples;Min_cycle;Max_cycle;Signal;HPM_P1;HPM_P2
2021/12/17 00:00:04;;;;;;;99.40;32.88;;;;;;;;;;4373095;32;20334;-75
2021/12/17 00:05:20;;;;;;;120.55;33.63;;;;;;;;;;4384561;32;20068;-75
2021/12/17 00:07:53;;;;;;;116.18;33.78;;;;;;;;;;4376308;32;20412;-75
2021/12/17 00:10:36;;;;;;;99.97;30.33;;;;;;;;;;4376669;32;20047;-75
2021/12/17 00:13:10;;;;;;;70.65;29.25;;;;;;;;;;4362293;32;20098;-75
2021/12/17 00:15:40;;;;;;;147.23;37.67;;;;;;;;;;4390899;32;20050;-75
2021/12/17 00:18:14;;;;;;;92.45;27.75;;;;;;;;;;4390775;32;20026;-75
2021/12/17 00:44:15;;;;;;;139.80;41.05;;;;;;;;;;4392968;32;20038;-75
2021/12/17 00:52:58;;;;;;;76.65;29.55;;;;;;;;;;4373110;32;20065;-76
2021/12/17 00:58:46;;;;;;;90.20;21.45;;;;;;;;;;4329027;33;20099;-75
2021/12/17 01:01:45;;;;;;;98.18;28.83;;;;;;;;;;4358666;33;20069;-75
2021/12/17 01:04:16;;;;;;;95.95;26.83;;;;;;;;;;4363253;32;20031;-75
2021/12/17 01:10:05;;;;;;;;;;;;;;;;;;;;;
2021/12/17 01:12:49;;;;;;;117.35;27.02;;;;;;;;;;4329203;33;20039;-76
2021/12/17 01:22:11;;;;;;;;;;;;;;;;;;;;;
2021/12/17 01:49:27;;;;;;;109.50;25.23;;;;;;;;;;4361241;32;20054;-75
2021/12/17 02:03:58;;;;;;;172.30;27.90;;;;;;;;;;4316983;33;20055;-75
2021/12/17 02:33:31;;;;;;;112.18;24.20;;;;;;;;;;4285835;33;20048;-75
2021/12/17 03:10:10;;;;;;;114.20;51.17;;;;;;;;;;4192262;33;20057;-75
2021/12/17 03:28:52;;;;;;;171.57;71.97;;;;;;;;;;4271915;33;20076;-75
2021/12/17 03:31:33;;;;;;;176.93;67.07;;;;;;;;;;4272206;33;20059;-75
2021/12/17 03:34:25;;;;;;;155.55;69.53;;;;;;;;;;4300913;33;20099;-76
2021/12/17 03:36:54;;;;;;;172.82;73.70;;;;;;;;;;4321520;33;20102;-75
2021/12/17 03:39:30;;;;;;;137.90;67.43;;;;;;;;;;4330267;33;20024;-75
2021/12/17 03:45:18;;;;;;;131.05;66.25;;;;;;;;;;4272125;33;20101;-75
2021/12/17 03:48:02;;;;;;;;;;;;;;;;;;;;;
2021/12/17 04:14:48;;;;;;;155.90;77.70;;;;;;;;;;4326249;33;20111;-75
2021/12/17 04:20:23;;;;;;;179.38;71.28;;;;;;;;;;4315116;33;20371;-76
2021/12/17 04:23:14;;;;;;;217.50;77.37;;;;;;;;;;4323367;33;20378;-75
2021/12/17 04:28:46;;;;;;;;;;;;;;;;;;;;;
2021/12/17 04:31:31;;;;;;;;;;;;;;;;;;;;;
2021/12/17 04:40:43;;;;;;;113.00;44.25;;;;;;;;;;4346200;32;20082;-75
2021/12/17 04:43:35;;;;;;;115.35;42.35;;;;;;;;;;4330727;33;20054;-74
2021/12/17 04:46:23;;;;;;;112.30;40.50;;;;;;;;;;4343802;33;20027;-74
2021/12/17 04:57:41;;;;;;;93.90;34.97;;;;;;;;;;4405980;32;20127;-75
2021/12/17 05:06:34;;;;;;;108.45;39.88;;;;;;;;;;4390827;32;20042;-74
2021/12/17 05:32:18;;;;;;;80.07;31.70;;;;;;;;;;4328782;33;20139;-74
2021/12/17 05:34:57;;;;;;;91.90;32.47;;;;;;;;;;4329030;33;20083;-75
2021/12/17 05:37:29;;;;;;;69.25;31.77;;;;;;;;;;4341494;32;20032;-74
2021/12/17 05:40:13;;;;;;;;;;;;;;;;;;;;;
2021/12/17 05:48:40;;;;;;;72.62;28.00;;;;;;;;;;4343740;33;20404;-74
2021/12/17 05:51:07;;;;;;;77.40;29.73;;;;;;;;;;4370385;32;20413;-74
2021/12/17 05:53:41;;;;;;;72.72;28.55;;;;;;;;;;4374502;32;20042;-74
2021/12/17 05:56:17;;;;;;;88.68;30.27;;;;;;;;;;4375420;32;20030;-74
2021/12/17 05:58:45;;;;;;;78.10;26.67;;;;;;;;;;4372741;32;20058;-74
2021/12/17 06:01:27;;;;;;;83.60;29.73;;;;;;;;;;4374894;32;20055;-76
2021/12/17 06:13:18;;;;;;;99.22;31.58;;;;;;;;;;4270270;33;20440;-75
2021/12/17 06:16:00;;;;;;;;;;;;;;;;;;;;;
2021/12/17 06:18:51;;;;;;;109.37;31.20;;;;;;;;;;4305728;33;20029;-75
2021/12/17 06:21:19;;;;;;;94.53;30.60;;;;;;;;;;4313495;33;20032;-75
2021/12/17 06:23:44;;;;;;;105.35;30.83;;;;;;;;;;4312892;33;20049;-74
2021/12/17 06:26:09;;;;;;;;;;;;;;;;;;4314043;33;20109;-74
2021/12/17 06:28:34;;;;;;;99.50;29.20;;;;;;;;;;4302305;33;19955;-74
2021/12/17 06:31:00;;;;;;;;;;;;;;;;;;4337493;32;20130;-74
2021/12/17 06:33:35;;;;;;;;;;;;;;;;;;;;;
2021/12/17 06:39:04;;;;;;;98.40;29.42;;;;;;;;;;4407365;32;20075;-73
2021/12/17 07:18:01;;;;;;;87.12;27.08;;;;;;;;;;4286528;33;20084;-74
2021/12/17 07:30:17;;;;;;;68.25;25.83;;;;;;;;;;4330541;33;20466;-76
2021/12/17 07:40:39;;;;;;;71.22;24.85;;;;;;;;;;4330320;33;20116;-76
2021/12/17 07:43:36;;;;;;;64.55;23.10;;;;;;;;;;4329990;33;20472;-76
2021/12/17 07:52:48;;;;;;;64.22;23.67;;;;;;;;;;4300505;33;20045;-75
2021/12/17 07:58:29;;;;;;;78.95;26.45;;;;;;;;;;4292830;33;20099;-75
2021/12/17 08:04:11;;;;;;;81.12;27.23;;;;;;;;;;4315159;33;20163;-76
2021/12/17 08:06:43;;;;;;;69.32;23.98;;;;;;;;;;4320789;33;20414;-75
2021/12/17 08:09:08;;;;;;;66.82;25.52;;;;;;;;;;4320557;33;20032;-75
2021/12/17 08:11:38;;;;;;;;;;;;;;;;;;4332480;33;20154;-75
2021/12/17 08:14:24;;;;;;;71.95;25.50;;;;;;;;;;4344532;33;19943;-75
2021/12/17 08:32:10;;;;;;;;;;;;;;;;;;;;;
2021/12/17 08:41:09;;;;;;;59.60;24.87;;;;;;;;;;4323288;33;20455;-74
2021/12/17 08:50:24;;;;;;;;;;;;;;;;;;;;;
2021/12/17 08:53:38;;;;;;;;;;;;;;;;;;;;;
2021/12/17 09:03:09;;;;;;;70.30;25.83;;;;;;;;;;4246891;33;20037;-75
2021/12/17 09:05:56;;;;;;;61.95;21.85;;;;;;;;;;4336948;32;20349;-74
2021/12/17 09:08:22;;;;;;;52.08;19.35;;;;;;;;;;4406138;32;20090;-75
2021/12/17 09:13:57;;;;;;;49.63;17.75;;;;;;;;;;4398951;32;19952;-75
2021/12/17 09:17:02;;;;;;;55.15;21.60;;;;;;;;;;4343200;33;20032;-74
2021/12/17 09:19:28;;;;;;;60.95;20.67;;;;;;;;;;4356340;32;20060;-75
2021/12/17 09:24:47;;;;;;;52.97;19.42;;;;;;;;;;4373932;32;19934;-74
2021/12/17 09:27:27;;;;;;;51.35;19.10;;;;;;;;;;4405183;32;20019;-74
2021/12/17 09:33:06;;;;;;;51.50;19.12;;;;;;;;;;4384077;32;20054;-74
2021/12/17 09:35:37;;;;;;;;;;;;;;;;;;4405634;32;20064;-74
2021/12/17 09:38:02;;;;;;;49.53;19.42;;;;;;;;;;4405253;32;19949;-75
2021/12/17 09:40:27;;;;;;;;;;;;;;;;;;4379039;32;20398;-74
2021/12/17 09:42:53;;;;;;;54.42;19.67;;;;;;;;;;4405726;32;19952;-76
2021/12/17 09:45:50;;;;;;;;;;;;;;;;;;;;;
2021/12/17 09:55:13;;;;;;;37.65;15.98;;;;;;;;;;4242957;33;20074;-76
2021/12/17 09:58:04;;;;;;;41.37;18.00;;;;;;;;;;4255746;33;20076;-75
2021/12/17 10:00:50;;;;;;;44.25;16.52;;;;;;;;;;4256469;33;20052;-75
2021/12/17 10:03:33;;;;;;;42.50;17.48;;;;;;;;;;4256466;33;20025;-75
2021/12/17 10:05:59;;;;;;;38.88;17.45;;;;;;;;;;4344086;32;20053;-75
2021/12/17 10:11:24;;;;;;;32.83;15.27;;;;;;;;;;4346689;33;19965;-76
2021/12/17 10:13:58;;;;;;;41.10;17.98;;;;;;;;;;4346480;33;20042;-75
2021/12/17 10:19:48;;;;;;;40.33;16.42;;;;;;;;;;4345894;33;20389;-76
2021/12/17 10:22:41;;;;;;;41.55;18.00;;;;;;;;;;4367964;32;20447;-76
2021/12/17 10:34:19;;;;;;;36.80;16.15;;;;;;;;;;4346041;33;20095;-76
2021/12/17 10:39:54;;;;;;;26.67;11.40;;;;;;;;;;4244651;33;20022;-75
2021/12/17 10:42:28;;;;;;;26.25;11.32;;;;;;;;;;4323758;33;20020;-75
2021/12/17 10:45:11;;;;;;;11.77;6.75;;;;;;;;;;4341449;32;20094;-76
2021/12/17 10:48:19;;;;;;;14.55;6.85;;;;;;;;;;4378876;32;20019;-76
2021/12/17 11:09:08;;;;;;;10.23;5.03;;;;;;;;;;4267914;33;20128;-75
2021/12/17 11:11:54;;;;;;;8.18;5.05;;;;;;;;;;4287113;33;20357;-76
2021/12/17 11:14:25;;;;;;;5.73;4.20;;;;;;;;;;4287040;33;20396;-76
2021/12/17 11:16:50;;;;;;;7.00;4.30;;;;;;;;;;4286346;33;20033;-75
2021/12/17 11:19:24;;;;;;;;;;;;;;;;;;4286798;33;20071;-75
2021/12/17 11:25:01;;;;;;;10.27;5.03;;;;;;;;;;4315208;33;20457;-75
2021/12/17 11:27:34;;;;;;;11.55;5.07;;;;;;;;;;4363461;32;20072;-75
2021/12/17 11:30:03;;;;;;;12.45;6.12;;;;;;;;;;4392539;32;20367;-75
2021/12/17 11:32:29;;;;;;;10.77;5.82;;;;;;;;;;4377858;32;20142;-75
2021/12/17 11:35:07;;;;;;;;;;;;;;;;;;;;;
2021/12/17 11:40:40;;;;;;;6.82;4.45;;;;;;;;;;4391615;32;20057;-75
2021/12/17 11:43:36;;;;;;;;;;;;;;;;;;;;;
2021/12/17 11:46:04;;;;;;;8.38;4.50;;;;;;;;;;4403443;32;20022;-75
2021/12/17 11:48:31;;;;;;;8.90;4.90;;;;;;;;;;4406713;32;20019;-75
2021/12/17 11:51:13;;;;;;;7.90;4.75;;;;;;;;;;4405857;32;20096;-73
2021/12/17 11:54:39;;;;;;;8.68;6.60;;;;;;;;;;4406204;32;20026;-76
2021/12/17 11:57:03;;;;;;;9.00;5.32;;;;;;;;;;4398532;32;20398;-77
2021/12/17 11:59:50;;;;;;;11.27;5.72;;;;;;;;;;4386013;32;20030;-78
2021/12/17 12:02:28;;;;;;;9.07;5.90;;;;;;;;;;4406897;32;20385;-77
2021/12/17 12:05:28;;;;;;;8.50;5.07;;;;;;;;;;4405763;32;20061;-77
2021/12/17 12:08:27;;;;;;;9.13;5.00;;;;;;;;;;4392113;32;20019;-77
2021/12/17 12:11:10;;;;;;;8.38;5.03;;;;;;;;;;4401204;32;20109;-77
2021/12/17 12:14:20;;;;;;;7.68;5.20;;;;;;;;;;4406793;32;20068;-76
2021/12/17 12:17:12;;;;;;;8.60;4.93;;;;;;;;;;4403132;32;20022;-76
2021/12/17 12:22:53;;;;;;;;;;;;;;;;;;;;;
2021/12/17 12:25:40;;;;;;;9.88;5.85;;;;;;;;;;4405845;32;20046;-77
2021/12/17 12:28:08;;;;;;;;;;;;;;;;;;4391468;32;20388;-76
2021/12/17 12:30:35;;;;;;;8.50;4.85;;;;;;;;;;4405913;32;19937;-76
2021/12/17 12:33:36;;;;;;;8.32;5.37;;;;;;;;;;4406241;32;20428;-76
2021/12/17 12:36:04;;;;;;;9.20;5.40;;;;;;;;;;4388379;32;20022;-76
2021/12/17 12:39:02;;;;;;;9.10;5.40;;;;;;;;;;4391395;32;20022;-76
2021/12/17 12:41:35;;;;;;;8.50;5.75;;;;;;;;;;4406076;32;20026;-76
2021/12/17 12:48:05;;;;;;;;;;;;;;;;;;;;;
2021/12/17 12:57:21;;;;;;;;;;;;;;;;;;;;;
2021/12/17 13:00:22;;;;;;;;;;;;;;;;;;;;;
2021/12/17 13:02:51;;;;;;;7.45;4.40;;;;;;;;;;4325585;33;20062;-76
2021/12/17 13:05:22;;;;;;;8.30;5.07;;;;;;;;;;4363524;32;20038;-76
2021/12/17 13:11:16;;;;;;;9.05;5.12;;;;;;;;;;4314111;33;20083;-76
2021/12/17 13:13:51;;;;;;;9.48;5.60;;;;;;;;;;4389041;32;20041;-76
2021/12/17 13:16:35;;;;;;;9.35;5.45;;;;;;;;;;4376653;32;20075;-75
2021/12/17 13:21:59;;;;;;;5.87;4.37;;;;;;;;;;4392594;32;20501;-76
2021/12/17 13:24:55;;;;;;;13.48;7.70;;;;;;;;;;4390632;32;20014;-77
2021/12/17 13:27:41;;;;;;;;;;;;;;;;;;;;;
2021/12/17 13:30:44;;;;;;;8.73;4.80;;;;;;;;;;4395296;32;20057;-76
2021/12/17 13:33:01;;;;;;;9.65;5.53;;;;;;;;;;4401128;32;20061;-75
2021/12/17 13:35:27;;;;;;;;;;;;;;;;;;4405274;32;20333;-76
2021/12/17 13:38:15;;;;;;;8.90;4.50;;;;;;;;;;4391068;32;19938;-76
2021/12/17 13:43:51;;;;;;;8.65;4.80;;;;;;;;;;4407975;32;20037;-76
2021/12/17 13:46:41;;;;;;;8.73;5.45;;;;;;;;;;4393745;32;20356;-76
2021/12/17 13:49:05;;;;;;;9.00;5.12;;;;;;;;;;4407379;32;20057;-76
2021/12/17 13:51:31;;;;;;;;;;;;;;;;;;4394264;32;20041;-76
2021/12/17 13:53:57;;;;;;;6.37;4.60;;;;;;;;;;4408189;32;19944;-76
2021/12/17 13:56:39;;;;;;;6.95;4.43;;;;;;;;;;4407859;32;20083;-76
2021/12/17 14:02:35;;;;;;;8.63;5.32;;;;;;;;;;4331506;33;20480;-76
2021/12/17 14:08:40;;;;;;;;;;;;;;;;;;;;;
2021/12/17 14:10:56;;;;;;;9.15;5.97;;;;;;;;;;4326826;33;20389;-77
2021/12/17 14:13:40;;;;;;;;;;;;;;;;;;4386344;32;20077;-77
2021/12/17 14:20:22;;;;;;;9.55;6.00;;;;;;;;;;4407853;32;20068;-77
2021/12/17 14:22:40;;;;;;;14.00;7.75;;;;;;;;;;4396796;32;20496;-76
2021/12/17 14:25:54;;;;;;;;;;;;;;;;;;;;;
2021/12/17 14:31:23;;;;;;;13.27;8.35;;;;;;;;;;4407721;32;20080;-75
2021/12/17 14:33:50;;;;;;;9.55;7.65;;;;;;;;;;4393273;32;20026;-76
2021/12/17 14:36:20;;;;;;;12.95;7.55;;;;;;;;;;4392335;32;20022;-76
2021/12/17 14:45:43;;;;;;;13.68;8.55;;;;;;;;;;4316139;33;20398;-76
2021/12/17 14:48:59;;;;;;;12.48;7.37;;;;;;;;;;4344784;33;20046;-76
2021/12/17 14:59:01;;;;;;;10.80;8.00;;;;;;;;;;4392311;32;20068;-76
2021/12/17 15:07:06;;;;;;;;;;;;;;;;;;;;;
2021/12/17 15:09:50;;;;;;;13.27;8.20;;;;;;;;;;4392767;32;20057;-77
2021/12/17 15:12:40;;;;;;;14.18;8.18;;;;;;;;;;4391716;32;20080;-75
2021/12/17 15:24:09;;;;;;;12.77;7.47;;;;;;;;;;4330889;33;20062;-76
2021/12/17 15:26:36;;;;;;;9.50;6.45;;;;;;;;;;4391409;32;20034;-75
2021/12/17 15:29:02;;;;;;;23.92;8.18;;;;;;;;;;4391370;32;20054;-75
2021/12/17 15:31:37;;;;;;;;;;;;;;;;;;;;;
2021/12/17 15:34:12;;;;;;;17.33;7.35;;;;;;;;;;4380812;32;19952;-76
2021/12/17 15:36:37;;;;;;;19.62;8.07;;;;;;;;;;4391828;32;20011;-76
2021/12/17 15:39:02;;;;;;;;;;;;;;;;;;4391976;32;20061;-76
2021/12/17 15:41:28;;;;;;;12.32;8.98;;;;;;;;;;4391295;32;19938;-76
2021/12/17 15:44:09;;;;;;;;;;;;;;;;;;4391600;32;20080;-75
2021/12/17 15:49:27;;;;;;;10.43;8.15;;;;;;;;;;4391704;32;20036;-75
2021/12/17 15:55:30;;;;;;;14.93;8.05;;;;;;;;;;4380769;32;20076;-77
2021/12/17 15:58:02;;;;;;;14.95;9.50;;;;;;;;;;4391627;32;20403;-76
2021/12/17 16:00:34;;;;;;;13.85;9.05;;;;;;;;;;4378701;32;20034;-76
2021/12/17 16:03:28;;;;;;;15.45;9.23;;;;;;;;;;4402661;32;20072;-76
2021/12/17 16:05:50;;;;;;;21.25;10.18;;;;;;;;;;4397715;32;20022;-76
2021/12/17 16:08:34;;;;;;;14.50;9.85;;;;;;;;;;4391038;32;20027;-76
2021/12/17 16:23:14;;;;;;;15.30;10.57;;;;;;;;;;4355929;32;20247;-76
2021/12/17 16:25:39;;;;;;;;;;;;;;;;;;4359241;32;20052;-76
2021/12/17 16:28:23;;;;;;;16.33;10.68;;;;;;;;;;4345882;32;19942;-76
2021/12/17 16:31:02;;;;;;;20.60;10.27;;;;;;;;;;4358642;32;20047;-76
2021/12/17 16:33:28;;;;;;;18.30;12.13;;;;;;;;;;4359015;32;20057;-76
2021/12/17 16:35:53;;;;;;;;;;;;;;;;;;4390965;32;20348;-76
2021/12/17 16:38:22;;;;;;;16.15;10.95;;;;;;;;;;4390568;32;20247;-76
2021/12/17 16:41:12;;;;;;;18.83;12.73;;;;;;;;;;4390554;32;20022;-76
2021/12/17 16:43:38;;;;;;;20.50;13.10;;;;;;;;;;4390653;32;20026;-76
2021/12/17 16:46:11;;;;;;;;;;;;;;;;;;4391430;32;20037;-76
2021/12/17 16:49:11;;;;;;;21.40;13.98;;;;;;;;;;4390513;32;19985;-76
2021/12/17 16:51:59;;;;;;;21.77;13.23;;;;;;;;;;4390667;32;20023;-76
2021/12/17 16:54:29;;;;;;;20.77;13.23;;;;;;;;;;4393904;32;20169;-76
2021/12/17 16:59:40;;;;;;;18.12;12.32;;;;;;;;;;4382168;32;20104;-76
2021/12/17 17:02:05;;;;;;;;;;;;;;;;;;4390499;32;20027;-76
2021/12/17 17:04:54;;;;;;;21.27;13.80;;;;;;;;;;4390343;32;20267;-76
2021/12/17 17:07:37;;;;;;;22.80;13.15;;;;;;;;;;4378607;32;20019;-76
2021/12/17 17:10:39;;;;;;;20.92;12.55;;;;;;;;;;4390601;32;20080;-76
2021/12/17 17:13:23;;;;;;;;;;;;;;;;;;;;;
2021/12/17 17:19:00;;;;;;;24.98;14.90;;;;;;;;;;4271101;33;20026;-76
2021/12/17 17:21:25;;;;;;;24.65;15.38;;;;;;;;;;4364006;32;20083;-76
2021/12/17 17:23:53;;;;;;;;;;;;;;;;;;4391921;32;20073;-76
2021/12/17 17:26:31;;;;;;;;;;;;;;;;;;;;;
2021/12/17 17:29:11;;;;;;;25.92;16.62;;;;;;;;;;4343080;33;20054;-77
2021/12/17 17:31:37;;;;;;;29.90;15.98;;;;;;;;;;4405366;32;20424;-77
2021/12/17 17:34:11;;;;;;;;;;;;;;;;;;4406093;32;20117;-77
2021/12/17 17:36:46;;;;;;;23.08;14.60;;;;;;;;;;4384202;32;19942;-76
2021/12/17 17:39:21;;;;;;;24.30;13.98;;;;;;;;;;4390355;32;20061;-77
2021/12/17 17:42:05;;;;;;;24.55;14.52;;;;;;;;;;4390361;32;20060;-76
2021/12/17 17:44:57;;;;;;;25.20;14.02;;;;;;;;;;4375869;32;20063;-77
2021/12/17 17:47:52;;;;;;;22.65;13.82;;;;;;;;;;4382365;32;20081;-76
2021/12/17 17:50:28;;;;;;;;;;;;;;;;;;;;;
2021/12/17 17:53:25;;;;;;;30.02;17.27;;;;;;;;;;4389164;32;20026;-76
2021/12/17 17:56:11;;;;;;;37.08;16.87;;;;;;;;;;4390345;32;20119;-77
2021/12/17 18:07:49;;;;;;;22.33;15.07;;;;;;;;;;4324305;33;20039;-77
2021/12/17 18:10:41;;;;;;;23.92;15.13;;;;;;;;;;4343220;33;20056;-77
2021/12/17 18:25:22;;;;;;;23.42;15.25;;;;;;;;;;4313598;33;20432;-77
2021/12/17 18:27:56;;;;;;;28.95;16.67;;;;;;;;;;4316478;33;20028;-77
2021/12/17 18:48:43;;;;;;;29.80;17.87;;;;;;;;;;4228615;34;20484;-77
2021/12/17 18:51:32;;;;;;;27.83;18.15;;;;;;;;;;4242199;33;20028;-77
2021/12/17 18:54:30;;;;;;;;;;;;;;;;;;;;;
2021/12/17 18:56:56;;;;;;;30.27;18.48;;;;;;;;;;4316082;33;20028;-77
2021/12/17 19:02:17;;;;;;;29.50;19.17;;;;;;;;;;4392341;32;19952;-76
2021/12/17 19:10:41;;;;;;;27.60;18.48;;;;;;;;;;4329027;32;20058;-76
2021/12/17 19:13:09;;;;;;;;;;;;;;;;;;4392318;32;20035;-76
2021/12/17 19:16:12;;;;;;;;;;;;;;;;;;;;;
2021/12/17 19:18:49;;;;;;;35.60;21.20;;;;;;;;;;4392551;32;20027;-75
2021/12/17 19:21:53;;;;;;;35.72;22.20;;;;;;;;;;4391980;32;20397;-76
2021/12/17 19:27:29;;;;;;;32.03;18.85;;;;;;;;;;4392167;32;20088;-76
2021/12/17 19:30:24;;;;;;;31.67;19.27;;;;;;;;;;4399682;32;20046;-76
2021/12/17 19:33:31;;;;;;;;;;;;;;;;;;;;;
2021/12/17 19:36:28;;;;;;;41.53;23.27;;;;;;;;;;4399002;32;20034;-77
2021/12/17 19:38:56;;;;;;;27.80;17.62;;;;;;;;;;4404170;32;20083;-77
2021/12/17 19:41:37;;;;;;;32.78;20.15;;;;;;;;;;4407410;32;20053;-78
2021/12/17 19:44:10;;;;;;;31.33;19.48;;;;;;;;;;4392894;32;20418;-78
2021/12/17 19:56:25;;;;;;;15.50;11.50;;;;;;;;;;4300930;33;20051;-77
2021/12/17 19:58:49;;;;;;;16.62;10.52;;;;;;;;;;4299868;33;20082;-77
2021/12/17 20:04:13;;;;;;;12.98;9.13;;;;;;;;;;4300571;33;20056;-77
2021/12/17 20:16:14;;;;;;;6.00;3.42;;;;;;;;;;4300368;33;20056;-77
2021/12/17 20:21:30;;;;;;;3.47;2.58;;;;;;;;;;4300493;33;20054;-78
2021/12/17 20:23:56;;;;;;;4.12;3.08;;;;;;;;;;4316448;33;20050;-77
2021/12/17 20:26:21;;;;;;;;;;;;;;;;;;4319986;33;20083;-77
2021/12/17 20:28:49;;;;;;;5.05;3.60;;;;;;;;;;4335013;33;19939;-77
2021/12/17 20:31:18;;;;;;;8.63;4.90;;;;;;;;;;4344023;33;20227;-77
2021/12/17 20:33:47;;;;;;;7.25;5.40;;;;;;;;;;4355160;32;20094;-77
2021/12/17 20:36:21;;;;;;;10.70;7.45;;;;;;;;;;4378187;32;20041;-77
2021/12/17 20:38:46;;;;;;;10.85;8.20;;;;;;;;;;4376798;32;20081;-77
2021/12/17 20:41:18;;;;;;;;;;;;;;;;;;4391364;32;20093;-77
2021/12/17 20:43:46;;;;;;;13.62;8.93;;;;;;;;;;4390527;32;19953;-77
2021/12/17 20:46:13;;;;;;;14.02;10.10;;;;;;;;;;4390318;32;20166;-77
2021/12/17 20:48:38;;;;;;;16.25;11.30;;;;;;;;;;4390650;32;20031;-77
2021/12/17 20:51:04;;;;;;;;;;;;;;;;;;4390109;32;20495;-77
2021/12/17 20:53:29;;;;;;;20.77;11.35;;;;;;;;;;4377039;32;19949;-77
2021/12/17 20:55:57;;;;;;;;;;;;;;;;;;4391366;32;20388;-77
2021/12/17 20:58:23;;;;;;;19.30;12.75;;;;;;;;;;4390113;32;19941;-77
2021/12/17 21:00:50;;;;;;;;;;;;;;;;;;4390340;32;20117;-77
2021/12/17 21:03:18;;;;;;;16.42;11.55;;;;;;;;;;4376842;32;19975;-77
2021/12/17 21:05:45;;;;;;;15.45;10.60;;;;;;;;;;4390119;32;20030;-78
2021/12/17 21:08:14;;;;;;;15.07;9.90;;;;;;;;;;4376582;32;20397;-78
2021/12/17 21:10:40;;;;;;;22.60;12.68;;;;;;;;;;4390242;32;20417;-77
2021/12/17 21:13:09;;;;;;;17.77;12.13;;;;;;;;;;4390361;32;20057;-77
2021/12/17 21:15:41;;;;;;;18.87;11.48;;;;;;;;;;4390028;32;20030;-77
2021/12/17 21:18:14;;;;;;;17.00;11.95;;;;;;;;;;4390990;32;20053;-77
2021/12/17 21:20:48;;;;;;;16.00;10.77;;;;;;;;;;4390852;32;20401;-77
2021/12/17 21:23:14;;;;;;;22.60;11.65;;;;;;;;;;4390375;32;20400;-77
2021/12/17 21:25:51;;;;;;;13.40;8.57;;;;;;;;;;4390123;32;20039;-77
2021/12/17 21:28:25;;;;;;;;;;;;;;;;;;4390865;32;20057;-77
2021/12/17 21:30:52;;;;;;;13.80;8.30;;;;;;;;;;4404024;32;20005;-77
2021/12/17 21:33:23;;;;;;;12.85;8.85;;;;;;;;;;4391240;32;20030;-78
2021/12/17 21:36:12;;;;;;;;;;;;;;;;;;;;;
2021/12/17 21:38:54;;;;;;;14.23;8.38;;;;;;;;;;4405136;32;20026;-78
2021/12/17 21:41:30;;;;;;;12.63;8.02;;;;;;;;;;4405828;32;20027;-78
2021/12/17 21:44:02;;;;;;;18.62;8.88;;;;;;;;;;4405567;32;20027;-78
2021/12/17 21:46:30;;;;;;;11.18;6.45;;;;;;;;;;4391123;32;20061;-77
2021/12/17 21:48:59;;;;;;;12.27;7.72;;;;;;;;;;4391188;32;20026;-78
2021/12/17 21:51:27;;;;;;;12.95;7.85;;;;;;;;;;4405015;32;20049;-78
2021/12/17 21:53:58;;;;;;;16.02;8.68;;;;;;;;;;4405120;32;20364;-78
2021/12/17 21:56:33;;;;;;;17.30;7.93;;;;;;;;;;4405640;32;20039;-78
2021/12/17 21:59:11;;;;;;;11.32;8.07;;;;;;;;;;4391085;32;20034;-78
2021/12/17 22:01:39;;;;;;;12.37;7.50;;;;;;;;;;4406389;32;20038;-78
2021/12/17 22:04:36;;;;;;;12.25;7.87;;;;;;;;;;4408001;32;20474;-78
2021/12/17 22:10:25;;;;;;;14.35;9.57;;;;;;;;;;4408447;32;20103;-78
2021/12/17 22:13:09;;;;;;;13.50;8.68;;;;;;;;;;4408165;32;20442;-77
2021/12/17 22:25:11;;;;;;;11.23;6.97;;;;;;;;;;4346194;33;20089;-76
2021/12/17 22:30:45;;;;;;;15.70;8.95;;;;;;;;;;4273254;33;20092;-77
2021/12/17 22:42:40;;;;;;;17.90;9.02;;;;;;;;;;4346232;33;20027;-76
2021/12/17 22:57:08;;;;;;;25.70;12.15;;;;;;;;;;4273009;33;20044;-77
2021/12/17 22:59:33;;;;;;;22.08;11.68;;;;;;;;;;4287903;33;20484;-76
2021/12/17 23:02:11;;;;;;;;;;;;;;;;;;;;;
2021/12/17 23:04:55;;;;;;;;;;;;;;;;;;;;;
2021/12/17 23:07:30;;;;;;;30.85;14.05;;;;;;;;;;4392530;32;20043;-77
2021/12/17 23:13:11;;;;;;;;;;;;;;;;;;;;;
2021/12/17 23:15:46;;;;;;;24.12;11.63;;;;;;;;;;4330613;33;20067;-78
2021/12/17 23:21:46;;;;;;;19.05;10.65;;;;;;;;;;4330079;33;20024;-77
2021/12/17 23:24:50;;;;;;;23.00;11.98;;;;;;;;;;4330464;33;20081;-75
2021/12/17 23:27:49;;;;;;;22.83;12.10;;;;;;;;;;4301586;33;20094;-78
2021/12/17 23:30:47;;;;;;;21.02;11.88;;;;;;;;;;4286292;33;20029;-77
2021/12/17 23:45:14;;;;;;;22.20;11.80;;;;;;;;;;4230112;34;20535;-78
2021/12/17 23:48:18;;;;;;;28.10;11.63;;;;;;;;;;4229909;34;20030;-77
2021/12/17 23:50:57;;;;;;;23.60;11.65;;;;;;;;;;4217749;34;20145;-78
2021/12/17 23:53:25;;;;;;;21.27;11.15;;;;;;;;;;4262069;33;20109;-77
2021/12/17 23:55:50;;;;;;;25.30;12.10;;;;;;;;;;4324741;32;20098;-77
2021/12/17 23:58:18;;;;;;;;;;;;;;;;;;4377347;32;20244;-77
